sensor_id;sensor_type;location;lat;lon;timestamp;P1;durP1;ratioP1;P2;durP2;ratioP2
56173;SDS011;42058;52.308;20.924;2022-07-01T00:00:22;8.67;;;3.90;;
56173;SDS011;42058;52.308;20.924;2022-07-01T00:02:50;13.80;;;5.63;;
56173;SDS011;42058;52.308;20.924;2022-07-01T00:05:16;9.23;;;5.03;;
56173;SDS011;42058;52.308;20.924;2022-07-01T00:07:45;7.10;;;5.07;;
56173;SDS011;42058;52.308;20.924;2022-07-01T00:10:12;15.03;;;5.90;;
56173;SDS011;42058;52.308;20.924;2022-07-01T00:12:39;7.47;;;5.60;;
56173;SDS011;42058;52.308;20.924;2022-07-01T00:15:05;14.27;;;6.30;;
56173;SDS011;42058;52.308;20.924;2022-07-01T00:17:33;11.10;;;6.23;;
56173;SDS011;42058;52.308;20.924;2022-07-01T00:19:59;8.23;;;5.90;;
56173;SDS011;42058;52.308;20.924;2022-07-01T00:22:25;13.70;;;6.03;;
56173;SDS011;42058;52.308;20.924;2022-07-01T00:24:53;13.70;;;6.60;;
56173;SDS011;42058;52.308;20.924;2022-07-01T00:27:20;11.87;;;6.87;;
56173;SDS011;42058;52.308;20.924;2022-07-01T00:29:47;11.60;;;6.63;;
56173;SDS011;42058;52.308;20.924;2022-07-01T00:32:13;10.57;;;6.40;;
56173;SDS011;42058;52.308;20.924;2022-07-01T00:34:39;13.03;;;6.17;;
56173;SDS011;42058;52.308;20.924;2022-07-01T00:37:05;10.93;;;6.40;;
56173;SDS011;42058;52.308;20.924;2022-07-01T00:39:31;10.90;;;6.27;;
56173;SDS011;42058;52.308;20.924;2022-07-01T00:42:00;11.03;;;6.20;;
56173;SDS011;42058;52.308;20.924;2022-07-01T00:44:27;8.07;;;6.50;;
56173;SDS011;42058;52.308;20.924;2022-07-01T00:46:54;12.40;;;6.17;;
56173;SDS011;42058;52.308;20.924;2022-07-01T00:49:20;8.17;;;6.70;;
56173;SDS011;42058;52.308;20.924;2022-07-01T00:51:47;10.50;;;7.00;;
56173;SDS011;42058;52.308;20.924;2022-07-01T00:54:14;10.87;;;6.30;;
56173;SDS011;42058;52.308;20.924;2022-07-01T00:56:40;8.63;;;6.87;;
56173;SDS011;42058;52.308;20.924;2022-07-01T00:59:07;8.87;;;6.20;;
56173;SDS011;42058;52.308;20.924;2022-07-01T01:01:33;12.00;;;6.20;;
56173;SDS011;42058;52.308;20.924;2022-07-01T01:04:00;12.77;;;5.67;;
56173;SDS011;42058;52.308;20.924;2022-07-01T01:06:26;13.63;;;6.23;;
56173;SDS011;42058;52.308;20.924;2022-07-01T01:08:53;9.90;;;7.27;;
56173;SDS011;42058;52.308;20.924;2022-07-01T01:11:19;10.67;;;7.43;;
56173;SDS011;42058;52.308;20.924;2022-07-01T01:13:46;14.93;;;7.07;;
56173;SDS011;42058;52.308;20.924;2022-07-01T01:16:16;10.37;;;7.20;;
56173;SDS011;42058;52.308;20.924;2022-07-01T01:18:47;10.37;;;7.23;;
56173;SDS011;42058;52.308;20.924;2022-07-01T01:21:14;10.30;;;7.37;;
56173;SDS011;42058;52.308;20.924;2022-07-01T01:23:41;11.77;;;6.10;;
56173;SDS011;42058;52.308;20.924;2022-07-01T01:26:26;11.00;;;6.23;;
56173;SDS011;42058;52.308;20.924;2022-07-01T01:28:43;8.37;;;5.80;;
56173;SDS011;42058;52.308;20.924;2022-07-01T01:31:10;12.73;;;6.23;;
56173;SDS011;42058;52.308;20.924;2022-07-01T01:33:37;10.10;;;5.87;;
56173;SDS011;42058;52.308;20.924;2022-07-01T01:36:04;13.17;;;5.70;;
56173;SDS011;42058;52.308;20.924;2022-07-01T01:38:33;10.80;;;5.57;;
56173;SDS011;42058;52.308;20.924;2022-07-01T01:41:03;10.33;;;5.07;;
56173;SDS011;42058;52.308;20.924;2022-07-01T01:43:30;11.40;;;5.60;;
56173;SDS011;42058;52.308;20.924;2022-07-01T01:45:58;8.73;;;5.17;;
56173;SDS011;42058;52.308;20.924;2022-07-01T01:48:26;12.80;;;5.20;;
56173;SDS011;42058;52.308;20.924;2022-07-01T01:50:53;8.20;;;5.47;;
56173;SDS011;42058;52.308;20.924;2022-07-01T01:53:20;10.87;;;5.33;;
56173;SDS011;42058;52.308;20.924;2022-07-01T01:55:47;11.63;;;5.77;;
56173;SDS011;42058;52.308;20.924;2022-07-01T01:58:13;10.43;;;5.50;;
56173;SDS011;42058;52.308;20.924;2022-07-01T02:00:39;11.03;;;5.00;;
56173;SDS011;42058;52.308;20.924;2022-07-01T02:03:05;8.93;;;5.37;;
56173;SDS011;42058;52.308;20.924;2022-07-01T02:05:31;13.87;;;5.63;;
56173;SDS011;42058;52.308;20.924;2022-07-01T02:07:59;8.53;;;5.33;;
56173;SDS011;42058;52.308;20.924;2022-07-01T02:10:25;9.37;;;4.87;;
56173;SDS011;42058;52.308;20.924;2022-07-01T02:12:51;10.77;;;4.87;;
56173;SDS011;42058;52.308;20.924;2022-07-01T02:15:17;9.37;;;5.30;;
56173;SDS011;42058;52.308;20.924;2022-07-01T02:17:43;6.80;;;4.63;;
56173;SDS011;42058;52.308;20.924;2022-07-01T02:20:09;9.33;;;5.17;;
56173;SDS011;42058;52.308;20.924;2022-07-01T02:22:38;10.23;;;5.47;;
56173;SDS011;42058;52.308;20.924;2022-07-01T02:25:04;9.23;;;5.27;;
56173;SDS011;42058;52.308;20.924;2022-07-01T02:27:31;12.07;;;5.87;;
56173;SDS011;42058;52.308;20.924;2022-07-01T02:29:57;7.97;;;5.30;;
56173;SDS011;42058;52.308;20.924;2022-07-01T02:32:24;10.23;;;5.13;;
56173;SDS011;42058;52.308;20.924;2022-07-01T02:34:50;8.63;;;5.10;;
56173;SDS011;42058;52.308;20.924;2022-07-01T02:37:16;9.57;;;5.60;;
56173;SDS011;42058;52.308;20.924;2022-07-01T02:39:44;8.30;;;5.97;;
56173;SDS011;42058;52.308;20.924;2022-07-01T02:42:11;15.63;;;5.90;;
56173;SDS011;42058;52.308;20.924;2022-07-01T02:44:55;10.73;;;5.23;;
56173;SDS011;42058;52.308;20.924;2022-07-01T02:47:21;12.27;;;5.87;;
56173;SDS011;42058;52.308;20.924;2022-07-01T02:49:48;7.30;;;5.10;;
56173;SDS011;42058;52.308;20.924;2022-07-01T02:52:17;15.67;;;6.13;;
56173;SDS011;42058;52.308;20.924;2022-07-01T02:54:43;14.40;;;6.17;;
56173;SDS011;42058;52.308;20.924;2022-07-01T02:57:09;9.50;;;5.63;;
56173;SDS011;42058;52.308;20.924;2022-07-01T02:59:35;12.90;;;6.20;;
56173;SDS011;42058;52.308;20.924;2022-07-01T03:02:02;12.63;;;6.30;;
56173;SDS011;42058;52.308;20.924;2022-07-01T03:04:28;11.87;;;5.90;;
56173;SDS011;42058;52.308;20.924;2022-07-01T03:06:54;15.57;;;6.20;;
56173;SDS011;42058;52.308;20.924;2022-07-01T03:09:21;10.83;;;6.07;;
56173;SDS011;42058;52.308;20.924;2022-07-01T03:11:47;9.23;;;6.40;;
56173;SDS011;42058;52.308;20.924;2022-07-01T03:14:13;14.43;;;6.20;;
56173;SDS011;42058;52.308;20.924;2022-07-01T03:16:39;9.90;;;6.63;;
56173;SDS011;42058;52.308;20.924;2022-07-01T03:19:05;12.97;;;5.40;;
56173;SDS011;42058;52.308;20.924;2022-07-01T03:21:31;10.70;;;6.00;;
56173;SDS011;42058;52.308;20.924;2022-07-01T03:23:57;8.57;;;5.77;;
56173;SDS011;42058;52.308;20.924;2022-07-01T03:26:23;17.07;;;6.80;;
56173;SDS011;42058;52.308;20.924;2022-07-01T03:28:49;18.87;;;7.33;;
56173;SDS011;42058;52.308;20.924;2022-07-01T03:31:15;17.63;;;6.93;;
56173;SDS011;42058;52.308;20.924;2022-07-01T03:33:41;13.73;;;7.33;;
56173;SDS011;42058;52.308;20.924;2022-07-01T03:36:08;13.00;;;7.07;;
56173;SDS011;42058;52.308;20.924;2022-07-01T03:38:34;11.50;;;7.13;;
56173;SDS011;42058;52.308;20.924;2022-07-01T03:41:01;14.57;;;7.27;;
56173;SDS011;42058;52.308;20.924;2022-07-01T03:43:27;11.57;;;7.13;;
56173;SDS011;42058;52.308;20.924;2022-07-01T03:45:53;16.60;;;6.63;;
56173;SDS011;42058;52.308;20.924;2022-07-01T03:48:19;13.57;;;7.10;;
56173;SDS011;42058;52.308;20.924;2022-07-01T03:50:45;11.00;;;7.50;;
56173;SDS011;42058;52.308;20.924;2022-07-01T03:53:11;11.97;;;7.17;;
56173;SDS011;42058;52.308;20.924;2022-07-01T03:55:56;16.63;;;8.70;;
56173;SDS011;42058;52.308;20.924;2022-07-01T03:58:22;13.87;;;7.57;;
56173;SDS011;42058;52.308;20.924;2022-07-01T04:00:48;13.30;;;7.87;;
56173;SDS011;42058;52.308;20.924;2022-07-01T04:03:14;11.90;;;7.17;;
56173;SDS011;42058;52.308;20.924;2022-07-01T04:05:40;24.57;;;9.30;;
56173;SDS011;42058;52.308;20.924;2022-07-01T04:08:07;13.03;;;7.47;;
56173;SDS011;42058;52.308;20.924;2022-07-01T04:10:34;18.17;;;8.20;;
56173;SDS011;42058;52.308;20.924;2022-07-01T04:13:01;15.53;;;7.37;;
56173;SDS011;42058;52.308;20.924;2022-07-01T04:15:28;21.03;;;7.93;;
56173;SDS011;42058;52.308;20.924;2022-07-01T04:17:54;17.87;;;7.53;;
56173;SDS011;42058;52.308;20.924;2022-07-01T04:20:21;12.97;;;7.90;;
56173;SDS011;42058;52.308;20.924;2022-07-01T04:22:47;14.57;;;8.10;;
56173;SDS011;42058;52.308;20.924;2022-07-01T04:25:13;15.63;;;8.20;;
56173;SDS011;42058;52.308;20.924;2022-07-01T04:27:39;15.60;;;8.67;;
56173;SDS011;42058;52.308;20.924;2022-07-01T04:30:06;14.17;;;8.70;;
56173;SDS011;42058;52.308;20.924;2022-07-01T04:32:33;17.03;;;9.17;;
56173;SDS011;42058;52.308;20.924;2022-07-01T04:35:00;15.73;;;8.80;;
56173;SDS011;42058;52.308;20.924;2022-07-01T04:37:26;22.27;;;8.90;;
56173;SDS011;42058;52.308;20.924;2022-07-01T04:39:52;16.53;;;8.53;;
56173;SDS011;42058;52.308;20.924;2022-07-01T04:42:18;19.80;;;8.23;;
56173;SDS011;42058;52.308;20.924;2022-07-01T04:44:45;17.67;;;8.83;;
56173;SDS011;42058;52.308;20.924;2022-07-01T04:47:11;18.07;;;9.00;;
56173;SDS011;42058;52.308;20.924;2022-07-01T04:49:38;14.83;;;8.90;;
56173;SDS011;42058;52.308;20.924;2022-07-01T04:52:04;18.50;;;8.47;;
56173;SDS011;42058;52.308;20.924;2022-07-01T04:54:30;19.00;;;9.33;;
56173;SDS011;42058;52.308;20.924;2022-07-01T04:56:56;15.57;;;8.60;;
56173;SDS011;42058;52.308;20.924;2022-07-01T04:59:22;16.23;;;8.43;;
56173;SDS011;42058;52.308;20.924;2022-07-01T05:01:49;13.93;;;8.93;;
56173;SDS011;42058;52.308;20.924;2022-07-01T05:04:15;15.17;;;9.47;;
56173;SDS011;42058;52.308;20.924;2022-07-01T05:06:43;12.43;;;8.97;;
56173;SDS011;42058;52.308;20.924;2022-07-01T05:09:10;10.60;;;8.27;;
56173;SDS011;42058;52.308;20.924;2022-07-01T05:11:37;12.23;;;9.67;;
56173;SDS011;42058;52.308;20.924;2022-07-01T05:14:04;12.77;;;9.53;;
56173;SDS011;42058;52.308;20.924;2022-07-01T05:16:32;14.23;;;9.90;;
56173;SDS011;42058;52.308;20.924;2022-07-01T05:18:59;14.57;;;9.83;;
56173;SDS011;42058;52.308;20.924;2022-07-01T05:21:45;13.50;;;9.50;;
56173;SDS011;42058;52.308;20.924;2022-07-01T05:24:25;14.20;;;9.77;;
56173;SDS011;42058;52.308;20.924;2022-07-01T05:26:56;13.77;;;9.70;;
56173;SDS011;42058;52.308;20.924;2022-07-01T05:29:23;18.60;;;9.13;;
56173;SDS011;42058;52.308;20.924;2022-07-01T05:31:50;20.70;;;9.13;;
56173;SDS011;42058;52.308;20.924;2022-07-01T05:34:16;14.67;;;9.20;;
56173;SDS011;42058;52.308;20.924;2022-07-01T05:36:42;20.30;;;10.03;;
56173;SDS011;42058;52.308;20.924;2022-07-01T05:39:08;16.70;;;9.70;;
56173;SDS011;42058;52.308;20.924;2022-07-01T05:41:35;15.20;;;10.00;;
56173;SDS011;42058;52.308;20.924;2022-07-01T05:44:01;12.13;;;9.93;;
56173;SDS011;42058;52.308;20.924;2022-07-01T05:46:27;17.87;;;10.47;;
56173;SDS011;42058;52.308;20.924;2022-07-01T05:48:54;19.90;;;10.17;;
56173;SDS011;42058;52.308;20.924;2022-07-01T05:51:20;16.37;;;10.30;;
56173;SDS011;42058;52.308;20.924;2022-07-01T05:53:46;14.90;;;10.03;;
56173;SDS011;42058;52.308;20.924;2022-07-01T05:56:13;12.73;;;9.83;;
56173;SDS011;42058;52.308;20.924;2022-07-01T05:58:40;19.33;;;10.30;;
56173;SDS011;42058;52.308;20.924;2022-07-01T06:01:06;12.97;;;10.63;;
56173;SDS011;42058;52.308;20.924;2022-07-01T06:03:32;13.73;;;10.63;;
56173;SDS011;42058;52.308;20.924;2022-07-01T06:05:58;12.83;;;9.73;;
56173;SDS011;42058;52.308;20.924;2022-07-01T06:08:24;11.20;;;10.03;;
56173;SDS011;42058;52.308;20.924;2022-07-01T06:10:50;12.73;;;11.23;;
56173;SDS011;42058;52.308;20.924;2022-07-01T06:13:16;13.17;;;9.87;;
56173;SDS011;42058;52.308;20.924;2022-07-01T06:15:43;14.77;;;10.43;;
56173;SDS011;42058;52.308;20.924;2022-07-01T06:18:09;14.83;;;10.10;;
56173;SDS011;42058;52.308;20.924;2022-07-01T06:20:35;19.97;;;10.20;;
56173;SDS011;42058;52.308;20.924;2022-07-01T06:23:01;17.73;;;10.47;;
56173;SDS011;42058;52.308;20.924;2022-07-01T06:25:28;13.77;;;9.73;;
56173;SDS011;42058;52.308;20.924;2022-07-01T06:27:54;16.00;;;9.93;;
56173;SDS011;42058;52.308;20.924;2022-07-01T06:30:20;16.93;;;9.70;;
56173;SDS011;42058;52.308;20.924;2022-07-01T06:32:46;12.53;;;9.60;;
56173;SDS011;42058;52.308;20.924;2022-07-01T06:35:12;16.13;;;9.90;;
56173;SDS011;42058;52.308;20.924;2022-07-01T06:37:38;12.73;;;8.93;;
56173;SDS011;42058;52.308;20.924;2022-07-01T06:40:06;13.20;;;8.80;;
56173;SDS011;42058;52.308;20.924;2022-07-01T06:42:33;9.83;;;8.73;;
56173;SDS011;42058;52.308;20.924;2022-07-01T06:45:00;14.87;;;9.20;;
56173;SDS011;42058;52.308;20.924;2022-07-01T06:47:26;17.83;;;10.63;;
56173;SDS011;42058;52.308;20.924;2022-07-01T06:49:53;11.23;;;8.93;;
56173;SDS011;42058;52.308;20.924;2022-07-01T06:52:19;11.30;;;8.50;;
56173;SDS011;42058;52.308;20.924;2022-07-01T06:54:47;11.07;;;9.83;;
56173;SDS011;42058;52.308;20.924;2022-07-01T06:57:13;9.63;;;8.23;;
56173;SDS011;42058;52.308;20.924;2022-07-01T06:59:39;12.97;;;8.40;;
56173;SDS011;42058;52.308;20.924;2022-07-01T07:02:08;10.27;;;8.97;;
56173;SDS011;42058;52.308;20.924;2022-07-01T07:04:34;14.57;;;8.97;;
56173;SDS011;42058;52.308;20.924;2022-07-01T07:07:02;14.03;;;9.07;;
56173;SDS011;42058;52.308;20.924;2022-07-01T07:09:28;13.50;;;8.43;;
56173;SDS011;42058;52.308;20.924;2022-07-01T07:11:55;15.03;;;8.53;;
56173;SDS011;42058;52.308;20.924;2022-07-01T07:14:21;11.90;;;8.67;;
56173;SDS011;42058;52.308;20.924;2022-07-01T07:16:47;16.23;;;9.43;;
56173;SDS011;42058;52.308;20.924;2022-07-01T07:19:13;11.30;;;9.10;;
56173;SDS011;42058;52.308;20.924;2022-07-01T07:21:39;10.57;;;8.63;;
56173;SDS011;42058;52.308;20.924;2022-07-01T07:24:05;13.83;;;9.43;;
56173;SDS011;42058;52.308;20.924;2022-07-01T07:26:32;14.73;;;9.57;;
56173;SDS011;42058;52.308;20.924;2022-07-01T07:28:58;16.00;;;9.47;;
56173;SDS011;42058;52.308;20.924;2022-07-01T07:31:27;13.20;;;9.18;;
56173;SDS011;42058;52.308;20.924;2022-07-01T07:34:00;14.50;;;9.78;;
56173;SDS011;42058;52.308;20.924;2022-07-01T07:36:26;15.18;;;9.00;;
56173;SDS011;42058;52.308;20.924;2022-07-01T07:38:52;13.85;;;9.28;;
56173;SDS011;42058;52.308;20.924;2022-07-01T07:41:19;15.28;;;9.10;;
56173;SDS011;42058;52.308;20.924;2022-07-01T07:43:47;14.98;;;8.73;;
56173;SDS011;42058;52.308;20.924;2022-07-01T07:46:14;19.02;;;8.98;;
56173;SDS011;42058;52.308;20.924;2022-07-01T07:48:41;13.72;;;9.43;;
56173;SDS011;42058;52.308;20.924;2022-07-01T07:51:11;16.07;;;8.75;;
56173;SDS011;42058;52.308;20.924;2022-07-01T07:53:39;15.45;;;8.88;;
56173;SDS011;42058;52.308;20.924;2022-07-01T07:56:06;15.55;;;8.18;;
56173;SDS011;42058;52.308;20.924;2022-07-01T07:58:32;10.95;;;8.25;;
56173;SDS011;42058;52.308;20.924;2022-07-01T08:00:58;12.45;;;7.97;;
56173;SDS011;42058;52.308;20.924;2022-07-01T08:03:24;17.02;;;9.03;;
56173;SDS011;42058;52.308;20.924;2022-07-01T08:05:50;12.65;;;8.23;;
56173;SDS011;42058;52.308;20.924;2022-07-01T08:08:18;15.30;;;7.85;;
56173;SDS011;42058;52.308;20.924;2022-07-01T08:10:44;10.35;;;8.05;;
56173;SDS011;42058;52.308;20.924;2022-07-01T08:13:10;17.27;;;7.80;;
56173;SDS011;42058;52.308;20.924;2022-07-01T08:15:38;11.40;;;7.70;;
56173;SDS011;42058;52.308;20.924;2022-07-01T08:18:05;13.25;;;7.30;;
56173;SDS011;42058;52.308;20.924;2022-07-01T08:20:31;10.82;;;7.40;;
56173;SDS011;42058;52.308;20.924;2022-07-01T08:22:57;11.83;;;7.28;;
56173;SDS011;42058;52.308;20.924;2022-07-01T08:25:23;9.13;;;7.25;;
56173;SDS011;42058;52.308;20.924;2022-07-01T08:27:49;11.00;;;7.60;;
56173;SDS011;42058;52.308;20.924;2022-07-01T08:30:16;10.45;;;7.17;;
56173;SDS011;42058;52.308;20.924;2022-07-01T08:32:42;10.68;;;6.70;;
56173;SDS011;42058;52.308;20.924;2022-07-01T08:35:08;10.70;;;6.28;;
56173;SDS011;42058;52.308;20.924;2022-07-01T08:37:35;7.12;;;6.00;;
56173;SDS011;42058;52.308;20.924;2022-07-01T08:40:01;8.65;;;6.40;;
56173;SDS011;42058;52.308;20.924;2022-07-01T08:42:27;12.05;;;6.58;;
56173;SDS011;42058;52.308;20.924;2022-07-01T08:44:53;18.60;;;6.60;;
56173;SDS011;42058;52.308;20.924;2022-07-01T08:47:20;9.93;;;5.47;;
56173;SDS011;42058;52.308;20.924;2022-07-01T08:49:46;11.08;;;5.70;;
56173;SDS011;42058;52.308;20.924;2022-07-01T08:52:12;13.65;;;6.30;;
56173;SDS011;42058;52.308;20.924;2022-07-01T08:54:38;11.10;;;6.10;;
56173;SDS011;42058;52.308;20.924;2022-07-01T08:57:05;10.67;;;6.30;;
56173;SDS011;42058;52.308;20.924;2022-07-01T08:59:32;15.98;;;6.20;;
56173;SDS011;42058;52.308;20.924;2022-07-01T09:02:00;8.95;;;5.80;;
56173;SDS011;42058;52.308;20.924;2022-07-01T09:04:32;7.92;;;5.28;;
56173;SDS011;42058;52.308;20.924;2022-07-01T09:07:01;13.88;;;5.78;;
56173;SDS011;42058;52.308;20.924;2022-07-01T09:09:33;11.28;;;5.78;;
56173;SDS011;42058;52.308;20.924;2022-07-01T09:12:04;6.30;;;5.70;;
56173;SDS011;42058;52.308;20.924;2022-07-01T09:14:32;8.55;;;5.53;;
56173;SDS011;42058;52.308;20.924;2022-07-01T09:17:01;6.00;;;5.28;;
56173;SDS011;42058;52.308;20.924;2022-07-01T09:19:38;5.70;;;5.20;;
56173;SDS011;42058;52.308;20.924;2022-07-01T09:22:03;6.55;;;5.00;;
56173;SDS011;42058;52.308;20.924;2022-07-01T09:27:09;6.22;;;5.50;;
56173;SDS011;42058;52.308;20.924;2022-07-01T09:29:51;6.95;;;5.58;;
56173;SDS011;42058;52.308;20.924;2022-07-01T09:32:19;10.98;;;5.10;;
56173;SDS011;42058;52.308;20.924;2022-07-01T09:34:48;8.88;;;6.05;;
56173;SDS011;42058;52.308;20.924;2022-07-01T09:37:17;10.03;;;5.40;;
56173;SDS011;42058;52.308;20.924;2022-07-01T09:42:20;6.80;;;5.08;;
56173;SDS011;42058;52.308;20.924;2022-07-01T09:47:31;8.93;;;4.62;;
56173;SDS011;42058;52.308;20.924;2022-07-01T09:50:00;6.33;;;5.03;;
56173;SDS011;42058;52.308;20.924;2022-07-01T09:52:29;8.45;;;5.10;;
56173;SDS011;42058;52.308;20.924;2022-07-01T09:54:55;7.50;;;4.90;;
56173;SDS011;42058;52.308;20.924;2022-07-01T09:57:21;10.35;;;5.30;;
56173;SDS011;42058;52.308;20.924;2022-07-01T09:59:49;6.47;;;5.28;;
56173;SDS011;42058;52.308;20.924;2022-07-01T10:02:19;6.30;;;4.90;;
56173;SDS011;42058;52.308;20.924;2022-07-01T10:04:53;5.53;;;4.95;;
56173;SDS011;42058;52.308;20.924;2022-07-01T10:13:24;9.28;;;4.62;;
56173;SDS011;42058;52.308;20.924;2022-07-01T10:15:56;7.42;;;5.08;;
56173;SDS011;42058;52.308;20.924;2022-07-01T10:18:23;8.45;;;5.20;;
56173;SDS011;42058;52.308;20.924;2022-07-01T10:20:52;5.85;;;5.03;;
56173;SDS011;42058;52.308;20.924;2022-07-01T10:23:21;8.40;;;5.00;;
56173;SDS011;42058;52.308;20.924;2022-07-01T10:25:50;8.30;;;5.12;;
56173;SDS011;42058;52.308;20.924;2022-07-01T10:30:56;5.50;;;4.90;;
56173;SDS011;42058;52.308;20.924;2022-07-01T10:41:37;6.37;;;4.60;;
56173;SDS011;42058;52.308;20.924;2022-07-01T10:44:11;15.20;;;5.15;;
56173;SDS011;42058;52.308;20.924;2022-07-01T10:46:44;6.97;;;4.92;;
56173;SDS011;42058;52.308;20.924;2022-07-01T10:49:19;10.23;;;4.90;;
56173;SDS011;42058;52.308;20.924;2022-07-01T10:52:06;10.08;;;4.85;;
56173;SDS011;42058;52.308;20.924;2022-07-01T11:02:32;6.72;;;4.50;;
56173;SDS011;42058;52.308;20.924;2022-07-01T11:05:10;10.32;;;4.58;;
56173;SDS011;42058;52.308;20.924;2022-07-01T11:07:40;5.80;;;4.40;;
56173;SDS011;42058;52.308;20.924;2022-07-01T11:10:11;7.87;;;4.60;;
56173;SDS011;42058;52.308;20.924;2022-07-01T11:12:41;7.40;;;4.40;;
56173;SDS011;42058;52.308;20.924;2022-07-01T11:15:10;8.78;;;4.37;;
56173;SDS011;42058;52.308;20.924;2022-07-01T11:17:42;6.35;;;4.62;;
56173;SDS011;42058;52.308;20.924;2022-07-01T11:20:13;7.87;;;4.17;;
56173;SDS011;42058;52.308;20.924;2022-07-01T11:22:40;6.58;;;4.28;;
56173;SDS011;42058;52.308;20.924;2022-07-01T11:25:08;7.03;;;4.00;;
56173;SDS011;42058;52.308;20.924;2022-07-01T11:27:37;12.00;;;4.08;;
56173;SDS011;42058;52.308;20.924;2022-07-01T11:32:38;6.05;;;3.85;;
56173;SDS011;42058;52.308;20.924;2022-07-01T11:35:14;10.05;;;4.47;;
56173;SDS011;42058;52.308;20.924;2022-07-01T11:38:05;6.60;;;4.50;;
56173;SDS011;42058;52.308;20.924;2022-07-01T11:40:52;5.65;;;3.83;;
56173;SDS011;42058;52.308;20.924;2022-07-01T11:43:22;6.53;;;3.77;;
56173;SDS011;42058;52.308;20.924;2022-07-01T11:45:52;6.30;;;3.98;;
56173;SDS011;42058;52.308;20.924;2022-07-01T11:48:36;7.45;;;4.05;;
56173;SDS011;42058;52.308;20.924;2022-07-01T11:51:07;5.47;;;4.05;;
56173;SDS011;42058;52.308;20.924;2022-07-01T11:53:41;5.83;;;4.30;;
56173;SDS011;42058;52.308;20.924;2022-07-01T11:56:16;6.12;;;4.03;;
56173;SDS011;42058;52.308;20.924;2022-07-01T11:58:50;6.97;;;4.30;;
56173;SDS011;42058;52.308;20.924;2022-07-01T12:01:31;8.08;;;4.10;;
56173;SDS011;42058;52.308;20.924;2022-07-01T12:04:00;8.10;;;4.22;;
56173;SDS011;42058;52.308;20.924;2022-07-01T12:06:29;11.53;;;4.08;;
56173;SDS011;42058;52.308;20.924;2022-07-01T12:08:56;8.28;;;3.72;;
56173;SDS011;42058;52.308;20.924;2022-07-01T12:11:23;6.60;;;4.10;;
56173;SDS011;42058;52.308;20.924;2022-07-01T12:13:52;10.88;;;4.55;;
56173;SDS011;42058;52.308;20.924;2022-07-01T12:16:22;10.20;;;4.60;;
56173;SDS011;42058;52.308;20.924;2022-07-01T12:18:56;9.65;;;3.67;;
56173;SDS011;42058;52.308;20.924;2022-07-01T12:21:27;6.78;;;3.98;;
56173;SDS011;42058;52.308;20.924;2022-07-01T12:24:06;6.97;;;4.08;;
56173;SDS011;42058;52.308;20.924;2022-07-01T12:27:20;4.50;;;4.10;;
56173;SDS011;42058;52.308;20.924;2022-07-01T12:29:21;8.63;;;4.05;;
56173;SDS011;42058;52.308;20.924;2022-07-01T12:42:54;7.35;;;3.42;;
56173;SDS011;42058;52.308;20.924;2022-07-01T12:45:24;4.47;;;3.30;;
56173;SDS011;42058;52.308;20.924;2022-07-01T12:47:56;7.90;;;3.65;;
56173;SDS011;42058;52.308;20.924;2022-07-01T12:50:32;8.50;;;4.25;;
56173;SDS011;42058;52.308;20.924;2022-07-01T12:53:10;13.13;;;4.30;;
56173;SDS011;42058;52.308;20.924;2022-07-01T12:55:43;7.95;;;4.37;;
56173;SDS011;42058;52.308;20.924;2022-07-01T12:58:19;8.43;;;3.70;;
56173;SDS011;42058;52.308;20.924;2022-07-01T13:00:52;12.25;;;4.30;;
56173;SDS011;42058;52.308;20.924;2022-07-01T13:03:24;6.72;;;3.90;;
56173;SDS011;42058;52.308;20.924;2022-07-01T13:05:52;5.85;;;3.75;;
56173;SDS011;42058;52.308;20.924;2022-07-01T13:08:20;7.75;;;3.77;;
56173;SDS011;42058;52.308;20.924;2022-07-01T13:10:47;7.33;;;3.77;;
56173;SDS011;42058;52.308;20.924;2022-07-01T13:13:15;9.38;;;3.77;;
56173;SDS011;42058;52.308;20.924;2022-07-01T13:15:44;9.50;;;3.55;;
56173;SDS011;42058;52.308;20.924;2022-07-01T13:18:11;7.75;;;3.90;;
56173;SDS011;42058;52.308;20.924;2022-07-01T13:20:39;7.53;;;4.10;;
56173;SDS011;42058;52.308;20.924;2022-07-01T13:23:06;8.70;;;3.70;;
56173;SDS011;42058;52.308;20.924;2022-07-01T13:25:34;6.78;;;3.72;;
56173;SDS011;42058;52.308;20.924;2022-07-01T13:28:03;10.78;;;3.95;;
56173;SDS011;42058;52.308;20.924;2022-07-01T13:30:30;5.17;;;3.45;;
56173;SDS011;42058;52.308;20.924;2022-07-01T13:32:57;7.55;;;4.00;;
56173;SDS011;42058;52.308;20.924;2022-07-01T13:35:23;8.15;;;3.98;;
56173;SDS011;42058;52.308;20.924;2022-07-01T13:37:50;7.70;;;4.45;;
56173;SDS011;42058;52.308;20.924;2022-07-01T13:40:17;10.60;;;3.90;;
56173;SDS011;42058;52.308;20.924;2022-07-01T13:42:44;7.37;;;4.25;;
56173;SDS011;42058;52.308;20.924;2022-07-01T13:45:10;10.45;;;4.65;;
56173;SDS011;42058;52.308;20.924;2022-07-01T13:47:36;6.83;;;3.67;;
56173;SDS011;42058;52.308;20.924;2022-07-01T13:50:03;6.00;;;3.55;;
56173;SDS011;42058;52.308;20.924;2022-07-01T13:52:30;7.87;;;4.25;;
56173;SDS011;42058;52.308;20.924;2022-07-01T13:54:56;7.33;;;4.05;;
56173;SDS011;42058;52.308;20.924;2022-07-01T13:57:23;8.60;;;3.60;;
56173;SDS011;42058;52.308;20.924;2022-07-01T13:59:51;6.90;;;3.80;;
56173;SDS011;42058;52.308;20.924;2022-07-01T14:02:18;6.53;;;4.03;;
56173;SDS011;42058;52.308;20.924;2022-07-01T14:04:45;7.55;;;3.98;;
56173;SDS011;42058;52.308;20.924;2022-07-01T14:07:13;13.15;;;3.90;;
56173;SDS011;42058;52.308;20.924;2022-07-01T14:09:39;8.03;;;4.33;;
56173;SDS011;42058;52.308;20.924;2022-07-01T14:12:06;6.75;;;3.80;;
56173;SDS011;42058;52.308;20.924;2022-07-01T14:14:33;10.03;;;4.20;;
56173;SDS011;42058;52.308;20.924;2022-07-01T14:16:59;7.95;;;4.00;;
56173;SDS011;42058;52.308;20.924;2022-07-01T14:19:25;6.80;;;3.98;;
56173;SDS011;42058;52.308;20.924;2022-07-01T14:21:53;5.22;;;4.10;;
56173;SDS011;42058;52.308;20.924;2022-07-01T14:24:20;9.30;;;4.17;;
56173;SDS011;42058;52.308;20.924;2022-07-01T14:26:47;9.18;;;4.17;;
56173;SDS011;42058;52.308;20.924;2022-07-01T14:29:13;5.95;;;4.10;;
56173;SDS011;42058;52.308;20.924;2022-07-01T14:31:39;6.83;;;4.25;;
56173;SDS011;42058;52.308;20.924;2022-07-01T14:34:05;8.25;;;4.37;;
56173;SDS011;42058;52.308;20.924;2022-07-01T14:36:31;4.53;;;3.98;;
56173;SDS011;42058;52.308;20.924;2022-07-01T14:38:57;8.63;;;3.75;;
56173;SDS011;42058;52.308;20.924;2022-07-01T14:41:23;7.15;;;3.70;;
56173;SDS011;42058;52.308;20.924;2022-07-01T14:43:50;9.28;;;4.20;;
56173;SDS011;42058;52.308;20.924;2022-07-01T14:46:16;6.75;;;3.55;;
56173;SDS011;42058;52.308;20.924;2022-07-01T14:48:43;5.35;;;4.15;;
56173;SDS011;42058;52.308;20.924;2022-07-01T14:51:09;6.80;;;3.87;;
56173;SDS011;42058;52.308;20.924;2022-07-01T14:53:36;7.50;;;3.98;;
56173;SDS011;42058;52.308;20.924;2022-07-01T14:56:02;9.63;;;3.80;;
56173;SDS011;42058;52.308;20.924;2022-07-01T14:58:28;4.58;;;3.77;;
56173;SDS011;42058;52.308;20.924;2022-07-01T15:00:54;10.78;;;4.20;;
56173;SDS011;42058;52.308;20.924;2022-07-01T15:03:21;5.37;;;4.03;;
56173;SDS011;42058;52.308;20.924;2022-07-01T15:05:47;5.65;;;4.20;;
56173;SDS011;42058;52.308;20.924;2022-07-01T15:08:13;5.83;;;3.85;;
56173;SDS011;42058;52.308;20.924;2022-07-01T15:10:40;9.30;;;4.30;;
56173;SDS011;42058;52.308;20.924;2022-07-01T15:13:06;7.33;;;4.17;;
56173;SDS011;42058;52.308;20.924;2022-07-01T15:15:32;10.93;;;4.15;;